Time;durP1;ratioP1;P1;durP2;ratioP2;P2;SDS_P1;SDS_P2;PMS_P1;PMS_P2;Temp;Humidity;BMP_temperature;BMP_pressure;BME280_temperature;BME280_humidity;BME280_pressure;Samples;Min_cycle;Max_cycle;Signal;HPM_P1;HPM_P2
2022/12/03 00:02:20;;;;;;;9.43;8.03;;;;;;;;;;4873346;29;20759;-85
2022/12/03 00:04:46;;;;;;;10.63;8.77;;;;;;;;;;4876135;29;20240;-86
2022/12/03 00:07:12;;;;;;;9.63;7.97;;;;;;;;;;4876747;29;20178;-86
2022/12/03 00:09:38;;;;;;;8.50;7.40;;;;;;;;;;4875886;29;20210;-89
2022/12/03 00:12:04;;;;;;;7.77;6.93;;;;;;;;;;4877350;29;20187;-90
2022/12/03 00:14:30;;;;;;;8.43;6.83;;;;;;;;;;4894892;29;20543;-85
2022/12/03 00:16:56;;;;;;;9.70;7.73;;;;;;;;;;4874601;29;20179;-89
2022/12/03 00:19:22;;;;;;;7.67;6.87;;;;;;;;;;4876936;29;20541;-85
2022/12/03 00:21:48;;;;;;;10.73;7.70;;;;;;;;;;4875175;29;20213;-88
2022/12/03 00:24:14;;;;;;;8.67;7.10;;;;;;;;;;4877523;29;21491;-85
2022/12/03 00:26:40;;;;;;;9.90;8.07;;;;;;;;;;4874771;29;20230;-88
2022/12/03 00:29:06;;;;;;;8.50;7.00;;;;;;;;;;4892218;29;20182;-87
2022/12/03 00:31:32;;;;;;;10.57;8.07;;;;;;;;;;4872625;29;20796;-86
2022/12/03 00:33:58;;;;;;;9.73;7.63;;;;;;;;;;4877129;29;20221;-85
2022/12/03 00:36:24;;;;;;;7.63;6.80;;;;;;;;;;4875777;29;20246;-87
2022/12/03 00:38:50;;;;;;;9.07;7.57;;;;;;;;;;4893354;29;20179;-86
2022/12/03 00:41:16;;;;;;;8.30;7.10;;;;;;;;;;4876496;29;20523;-88
2022/12/03 00:43:42;;;;;;;10.10;8.10;;;;;;;;;;4876669;29;20217;-86
2022/12/03 00:46:08;;;;;;;8.20;6.77;;;;;;;;;;4875109;29;20211;-86
2022/12/03 00:48:34;;;;;;;7.50;6.63;;;;;;;;;;4875562;29;20713;-86
2022/12/03 00:51:00;;;;;;;9.67;8.20;;;;;;;;;;4893865;29;20206;-86
2022/12/03 00:53:26;;;;;;;9.03;7.00;;;;;;;;;;4881060;29;20186;-87
2022/12/03 00:55:53;;;;;;;8.30;7.20;;;;;;;;;;4879772;29;20182;-87
2022/12/03 00:58:19;;;;;;;9.87;7.33;;;;;;;;;;4881293;29;20573;-84
2022/12/03 01:00:45;;;;;;;7.77;6.97;;;;;;;;;;4878833;29;20734;-85
2022/12/03 01:03:11;;;;;;;9.70;7.70;;;;;;;;;;4878777;29;20205;-85
2022/12/03 01:05:37;;;;;;;7.57;6.83;;;;;;;;;;4894209;29;20336;-90
2022/12/03 01:08:03;;;;;;;9.67;7.77;;;;;;;;;;4892802;29;20564;-85
2022/12/03 01:10:29;;;;;;;8.20;6.70;;;;;;;;;;4894279;29;20201;-87
2022/12/03 01:12:55;;;;;;;8.03;7.07;;;;;;;;;;4878606;29;20509;-86
2022/12/03 01:15:21;;;;;;;12.60;7.97;;;;;;;;;;4879114;29;20655;-87
2022/12/03 01:17:47;;;;;;;8.80;7.30;;;;;;;;;;4880238;29;20203;-85
2022/12/03 01:20:13;;;;;;;9.93;7.70;;;;;;;;;;4879851;29;20678;-89
2022/12/03 01:22:39;;;;;;;8.60;7.37;;;;;;;;;;4878224;29;20230;-85
2022/12/03 01:25:06;;;;;;;10.47;7.17;;;;;;;;;;4896551;29;20717;-85
2022/12/03 01:27:32;;;;;;;7.77;6.50;;;;;;;;;;4876821;29;20272;-87
2022/12/03 01:29:58;;;;;;;9.90;7.50;;;;;;;;;;4891838;29;20186;-87
2022/12/03 01:32:31;;;;;;;10.23;7.83;;;;;;;;;;4890532;29;20179;-86
2022/12/03 01:34:57;;;;;;;9.03;6.80;;;;;;;;;;4876789;29;20313;-86
2022/12/03 01:37:24;;;;;;;8.23;6.83;;;;;;;;;;4888252;29;20685;-86
2022/12/03 01:39:51;;;;;;;9.73;7.60;;;;;;;;;;4876174;29;20273;-86
2022/12/03 01:42:19;;;;;;;9.07;7.10;;;;;;;;;;4883357;29;20242;-86
2022/12/03 01:44:45;;;;;;;9.33;7.67;;;;;;;;;;4887326;29;20206;-88
2022/12/03 01:47:15;;;;;;;9.13;7.57;;;;;;;;;;4898387;29;20183;-86
2022/12/03 01:49:49;;;;;;;8.50;6.87;;;;;;;;;;4881640;29;20273;-85
2022/12/03 01:52:17;;;;;;;9.20;7.50;;;;;;;;;;4893685;29;20238;-85
2022/12/03 01:54:47;;;;;;;10.93;7.13;;;;;;;;;;4897676;29;20570;-86
2022/12/03 01:57:25;;;;;;;8.33;6.80;;;;;;;;;;4897332;29;20641;-88
2022/12/03 01:59:51;;;;;;;8.70;6.40;;;;;;;;;;4895677;29;20754;-89
2022/12/03 02:02:23;;;;;;;8.13;7.27;;;;;;;;;;4881009;29;20210;-85
2022/12/03 02:04:49;;;;;;;9.37;7.67;;;;;;;;;;4880408;29;20668;-89
2022/12/03 02:07:20;;;;;;;8.83;7.57;;;;;;;;;;4879041;29;20612;-87
2022/12/03 02:09:46;;;;;;;9.13;7.47;;;;;;;;;;4891897;29;20193;-89
2022/12/03 02:12:13;;;;;;;8.10;7.10;;;;;;;;;;4878652;29;20234;-86
2022/12/03 02:14:39;;;;;;;8.27;6.60;;;;;;;;;;4877813;29;20206;-87
2022/12/03 02:17:05;;;;;;;9.00;7.10;;;;;;;;;;4877167;29;20229;-86
2022/12/03 02:19:31;;;;;;;8.47;6.77;;;;;;;;;;4880721;29;20191;-86
2022/12/03 02:22:19;;;;;;;8.93;7.67;;;;;;;;;;4894706;29;20237;-86
2022/12/03 02:24:48;;;;;;;8.83;7.13;;;;;;;;;;4894940;29;20586;-87
2022/12/03 02:27:14;;;;;;;9.67;7.20;;;;;;;;;;4875509;29;20190;-87
2022/12/03 02:29:40;;;;;;;8.73;7.13;;;;;;;;;;4894990;29;20178;-86
2022/12/03 02:32:06;;;;;;;8.70;6.50;;;;;;;;;;4877279;29;20225;-87
2022/12/03 02:34:43;;;;;;;8.10;6.77;;;;;;;;;;4879986;29;20190;-85
2022/12/03 02:37:17;;;;;;;8.50;6.77;;;;;;;;;;4856621;29;20199;-86
2022/12/03 02:39:46;;;;;;;9.93;7.30;;;;;;;;;;4874714;29;20190;-85
2022/12/03 02:45:00;;;;;;;10.60;7.90;;;;;;;;;;4875296;29;20211;-85
2022/12/03 02:47:27;;;;;;;9.43;7.00;;;;;;;;;;4860149;29;20839;-86
2022/12/03 02:49:53;;;;;;;9.77;7.63;;;;;;;;;;4860305;29;20562;-85
2022/12/03 02:52:19;;;;;;;10.33;7.43;;;;;;;;;;4858889;29;20188;-86
2022/12/03 02:54:46;;;;;;;9.57;7.77;;;;;;;;;;4860591;29;20243;-85
2022/12/03 02:57:12;;;;;;;8.50;7.13;;;;;;;;;;4874593;29;20187;-86
2022/12/03 02:59:38;;;;;;;8.37;6.60;;;;;;;;;;4860102;29;20957;-87
2022/12/03 03:02:04;;;;;;;9.70;7.10;;;;;;;;;;4859668;29;20302;-87
2022/12/03 03:04:31;;;;;;;8.77;7.73;;;;;;;;;;4859519;29;20183;-86
2022/12/03 03:06:57;;;;;;;9.50;7.70;;;;;;;;;;4851563;29;20272;-86
2022/12/03 03:09:23;;;;;;;9.97;8.47;;;;;;;;;;4863189;29;20223;-86
2022/12/03 03:11:49;;;;;;;10.13;7.57;;;;;;;;;;4856523;29;20175;-89
2022/12/03 03:14:16;;;;;;;10.60;8.57;;;;;;;;;;4859136;29;20555;-86
2022/12/03 03:16:42;;;;;;;10.90;8.23;;;;;;;;;;4859775;29;20235;-85
2022/12/03 03:19:08;;;;;;;8.70;7.00;;;;;;;;;;4864641;29;20202;-86
2022/12/03 03:21:34;;;;;;;9.87;7.20;;;;;;;;;;4864401;29;20241;-85
2022/12/03 03:24:00;;;;;;;9.97;7.67;;;;;;;;;;4864243;29;20630;-86
2022/12/03 03:26:26;;;;;;;10.10;7.73;;;;;;;;;;4879894;29;20215;-86
2022/12/03 03:28:52;;;;;;;10.13;8.07;;;;;;;;;;4862801;29;20535;-86
2022/12/03 03:31:21;;;;;;;8.80;7.50;;;;;;;;;;4865367;29;20171;-85
2022/12/03 03:33:48;;;;;;;11.33;8.73;;;;;;;;;;4861231;29;20184;-86
2022/12/03 03:36:15;;;;;;;11.67;7.73;;;;;;;;;;4877550;29;20241;-85
2022/12/03 03:38:41;;;;;;;10.93;8.70;;;;;;;;;;4882924;29;20300;-86
2022/12/03 03:41:08;;;;;;;9.50;7.00;;;;;;;;;;4882651;29;20210;-85
2022/12/03 03:43:35;;;;;;;9.70;7.87;;;;;;;;;;4883256;29;20592;-86
2022/12/03 03:46:02;;;;;;;9.10;7.20;;;;;;;;;;4899923;29;20170;-86
2022/12/03 03:48:29;;;;;;;9.90;8.20;;;;;;;;;;4881923;29;20206;-87
2022/12/03 03:50:55;;;;;;;10.07;7.60;;;;;;;;;;4881850;29;20178;-86
2022/12/03 03:53:22;;;;;;;9.87;7.93;;;;;;;;;;4881410;29;20179;-86
2022/12/03 03:55:49;;;;;;;11.20;8.93;;;;;;;;;;4895097;29;20269;-85
2022/12/03 03:58:15;;;;;;;10.03;7.97;;;;;;;;;;4898578;29;20193;-85
2022/12/03 04:00:45;;;;;;;10.87;8.27;;;;;;;;;;4882467;29;20183;-89
2022/12/03 04:03:11;;;;;;;10.67;9.10;;;;;;;;;;4887075;29;20711;-86
2022/12/03 04:05:38;;;;;;;12.17;8.20;;;;;;;;;;4883254;29;20170;-88
2022/12/03 04:08:04;;;;;;;11.47;8.50;;;;;;;;;;4880794;29;20175;-85
2022/12/03 04:13:14;;;;;;;9.67;7.83;;;;;;;;;;4898620;29;20209;-85
2022/12/03 04:15:40;;;;;;;8.93;7.37;;;;;;;;;;4876081;29;20201;-86
2022/12/03 04:22:38;;;;;;;11.77;8.37;;;;;;;;;;4888501;29;20249;-86
2022/12/03 04:23:37;;;;;;;10.23;7.43;;;;;;;;;;4895079;29;20365;-86
2022/12/03 04:28:48;;;;;;;9.53;7.37;;;;;;;;;;4895910;29;20241;-86
2022/12/03 04:36:43;;;;;;;10.20;7.73;;;;;;;;;;4894913;29;20273;-87
2022/12/03 04:39:09;;;;;;;10.77;8.23;;;;;;;;;;4877678;29;20661;-87
2022/12/03 04:41:35;;;;;;;13.13;7.83;;;;;;;;;;4897989;29;20649;-87
2022/12/03 04:46:46;;;;;;;11.40;8.60;;;;;;;;;;4899366;29;20197;-87
2022/12/03 04:49:12;;;;;;;12.47;8.40;;;;;;;;;;4881068;29;20607;-85
2022/12/03 04:51:38;;;;;;;12.73;8.77;;;;;;;;;;4897355;29;20215;-88
2022/12/03 04:54:05;;;;;;;11.00;8.07;;;;;;;;;;4894400;29;20637;-87
2022/12/03 04:56:31;;;;;;;12.60;8.67;;;;;;;;;;4886844;29;21119;-86
2022/12/03 04:58:57;;;;;;;11.60;8.50;;;;;;;;;;4880399;29;20289;-86
2022/12/03 05:01:23;;;;;;;11.47;8.00;;;;;;;;;;4880874;29;20186;-86
2022/12/03 05:03:49;;;;;;;11.70;8.30;;;;;;;;;;4880706;29;20183;-86
2022/12/03 05:06:15;;;;;;;11.57;7.77;;;;;;;;;;4880842;29;20246;-86
2022/12/03 05:08:41;;;;;;;12.77;8.20;;;;;;;;;;4880373;29;20195;-88
2022/12/03 05:11:07;;;;;;;13.37;9.20;;;;;;;;;;4881737;29;20178;-86
2022/12/03 05:13:33;;;;;;;11.70;8.17;;;;;;;;;;4881893;29;20197;-86
2022/12/03 05:15:59;;;;;;;11.77;9.10;;;;;;;;;;4876710;29;20221;-86
2022/12/03 05:18:25;;;;;;;12.20;7.70;;;;;;;;;;4894873;29;20218;-86
2022/12/03 05:20:51;;;;;;;11.27;8.03;;;;;;;;;;4879840;29;20653;-88
2022/12/03 05:23:17;;;;;;;13.03;9.57;;;;;;;;;;4881344;29;20199;-86
2022/12/03 05:25:43;;;;;;;12.67;7.70;;;;;;;;;;4881052;29;20187;-87
2022/12/03 05:28:09;;;;;;;12.83;8.20;;;;;;;;;;4877904;29;20180;-86
2022/12/03 05:30:35;;;;;;;12.23;8.53;;;;;;;;;;4880548;29;20265;-86
2022/12/03 05:33:02;;;;;;;11.23;8.47;;;;;;;;;;4876618;29;20254;-88
2022/12/03 05:35:28;;;;;;;13.47;9.00;;;;;;;;;;4898373;28;20226;-86
2022/12/03 05:37:54;;;;;;;12.50;8.57;;;;;;;;;;4878939;29;20366;-85
2022/12/03 05:40:20;;;;;;;11.97;8.13;;;;;;;;;;4879753;29;20558;-85
2022/12/03 05:43:00;;;;;;;11.03;8.23;;;;;;;;;;4881287;29;20432;-86
2022/12/03 05:45:28;;;;;;;13.20;8.40;;;;;;;;;;4885088;29;20197;-86
2022/12/03 05:47:55;;;;;;;12.23;8.23;;;;;;;;;;4884913;29;20588;-87
2022/12/03 05:50:22;;;;;;;13.40;8.83;;;;;;;;;;4898535;29;20306;-87
2022/12/03 05:52:48;;;;;;;10.80;8.23;;;;;;;;;;4884112;29;20242;-86
2022/12/03 05:55:36;;;;;;;14.77;8.43;;;;;;;;;;4866996;29;20217;-86
2022/12/03 05:58:02;;;;;;;12.30;9.07;;;;;;;;;;4902010;29;20186;-87
2022/12/03 06:00:37;;;;;;;14.97;9.10;;;;;;;;;;4899097;29;20205;-86
2022/12/03 06:03:04;;;;;;;12.13;8.43;;;;;;;;;;4884770;29;20198;-87
2022/12/03 06:05:30;;;;;;;13.60;9.07;;;;;;;;;;4884160;29;20178;-86
2022/12/03 06:07:56;;;;;;;12.83;8.43;;;;;;;;;;4882314;29;20170;-88
2022/12/03 06:10:23;;;;;;;13.50;8.83;;;;;;;;;;4881023;29;20227;-87
2022/12/03 06:12:50;;;;;;;13.17;8.67;;;;;;;;;;4880393;29;20192;-86
2022/12/03 06:15:16;;;;;;;15.17;8.37;;;;;;;;;;4879966;29;20209;-86
2022/12/03 06:17:42;;;;;;;13.37;9.40;;;;;;;;;;4887918;29;20198;-86
2022/12/03 06:20:10;;;;;;;17.07;9.40;;;;;;;;;;4893631;29;20533;-86
2022/12/03 06:22:36;;;;;;;13.53;8.67;;;;;;;;;;4889476;29;20207;-85
2022/12/03 06:25:02;;;;;;;14.33;8.40;;;;;;;;;;4892227;29;20190;-90
2022/12/03 06:27:28;;;;;;;13.43;9.50;;;;;;;;;;4884915;29;20193;-86
2022/12/03 06:29:54;;;;;;;14.97;9.07;;;;;;;;;;4884850;29;20186;-86
2022/12/03 06:32:20;;;;;;;11.57;8.13;;;;;;;;;;4881964;29;20187;-87
2022/12/03 06:34:46;;;;;;;13.27;9.03;;;;;;;;;;4891134;29;20201;-86
2022/12/03 06:37:19;;;;;;;13.90;8.77;;;;;;;;;;4883971;29;20657;-86
2022/12/03 06:39:45;;;;;;;12.93;8.83;;;;;;;;;;4884037;29;20618;-85
2022/12/03 06:42:11;;;;;;;13.53;9.77;;;;;;;;;;4883798;29;20664;-87
2022/12/03 06:44:37;;;;;;;14.67;8.90;;;;;;;;;;4878979;29;20187;-85
2022/12/03 06:47:03;;;;;;;13.53;8.77;;;;;;;;;;4907353;29;20245;-87
2022/12/03 06:49:29;;;;;;;13.33;9.03;;;;;;;;;;4893660;29;20665;-86
2022/12/03 06:51:55;;;;;;;12.83;8.03;;;;;;;;;;4898297;29;20591;-86
2022/12/03 06:54:21;;;;;;;13.93;8.40;;;;;;;;;;4897933;29;20279;-86
2022/12/03 06:56:47;;;;;;;14.93;9.53;;;;;;;;;;4886707;29;20190;-85
2022/12/03 06:59:13;;;;;;;13.90;9.70;;;;;;;;;;4888168;29;20194;-89
2022/12/03 07:01:39;;;;;;;12.53;9.03;;;;;;;;;;4904125;29;20265;-86
2022/12/03 07:04:05;;;;;;;14.17;8.47;;;;;;;;;;4887164;29;20193;-86
2022/12/03 07:06:31;;;;;;;11.03;8.77;;;;;;;;;;4884628;29;20187;-87
2022/12/03 07:08:57;;;;;;;15.77;10.17;;;;;;;;;;4885987;29;20190;-86
2022/12/03 07:11:29;;;;;;;13.07;8.57;;;;;;;;;;4883038;29;20554;-85
2022/12/03 07:13:56;;;;;;;14.80;8.77;;;;;;;;;;4884815;29;20183;-85
2022/12/03 07:16:22;;;;;;;12.70;8.33;;;;;;;;;;4883220;29;20273;-85
2022/12/03 07:18:48;;;;;;;17.60;9.93;;;;;;;;;;4884334;29;20198;-87
2022/12/03 07:21:14;;;;;;;12.00;8.47;;;;;;;;;;4886531;29;20191;-85
2022/12/03 07:23:41;;;;;;;15.10;10.13;;;;;;;;;;4882801;29;20198;-84
2022/12/03 07:26:07;;;;;;;12.90;8.67;;;;;;;;;;4897102;29;20178;-85
2022/12/03 07:28:33;;;;;;;15.20;8.73;;;;;;;;;;4900693;29;20202;-85
2022/12/03 07:30:59;;;;;;;13.80;9.03;;;;;;;;;;4883794;29;20210;-85
2022/12/03 07:33:25;;;;;;;15.00;9.47;;;;;;;;;;4883255;29;20285;-86
2022/12/03 07:35:51;;;;;;;15.03;9.93;;;;;;;;;;4883214;29;20214;-86
2022/12/03 07:38:17;;;;;;;14.17;9.70;;;;;;;;;;4885313;29;20183;-85
2022/12/03 07:40:44;;;;;;;15.23;9.67;;;;;;;;;;4883323;29;20191;-88
2022/12/03 07:43:10;;;;;;;14.23;8.53;;;;;;;;;;4884532;29;20299;-85
2022/12/03 07:45:36;;;;;;;13.37;9.03;;;;;;;;;;4882217;29;20223;-85
2022/12/03 07:48:02;;;;;;;11.27;8.17;;;;;;;;;;4883533;29;20182;-87
2022/12/03 07:50:28;;;;;;;14.40;9.00;;;;;;;;;;4900975;29;20190;-86
2022/12/03 07:52:54;;;;;;;13.97;8.53;;;;;;;;;;4882361;29;20217;-85
2022/12/03 07:55:20;;;;;;;15.00;8.90;;;;;;;;;;4886224;29;20552;-82
2022/12/03 07:57:46;;;;;;;14.93;9.40;;;;;;;;;;4895591;29;20186;-84
2022/12/03 08:00:13;;;;;;;12.23;8.47;;;;;;;;;;4881317;29;20200;-85
2022/12/03 08:02:40;;;;;;;15.23;9.57;;;;;;;;;;4881652;29;20217;-87
2022/12/03 08:05:06;;;;;;;15.63;10.50;;;;;;;;;;4877627;29;20191;-86
2022/12/03 08:07:32;;;;;;;13.17;8.47;;;;;;;;;;4882884;29;20545;-85
2022/12/03 08:09:58;;;;;;;11.40;8.77;;;;;;;;;;4886046;29;20226;-86
2022/12/03 08:12:38;;;;;;;15.00;9.47;;;;;;;;;;4877205;29;20205;-86
2022/12/03 08:15:12;;;;;;;14.03;8.50;;;;;;;;;;4879867;29;20243;-86
2022/12/03 08:17:39;;;;;;;13.67;8.63;;;;;;;;;;4876916;29;20194;-88
2022/12/03 08:20:11;;;;;;;14.43;9.23;;;;;;;;;;4896676;29;20198;-89
2022/12/03 08:22:37;;;;;;;13.13;8.40;;;;;;;;;;4881436;29;20209;-87
2022/12/03 08:25:07;;;;;;;12.57;8.83;;;;;;;;;;4879576;29;20209;-88
2022/12/03 08:27:33;;;;;;;12.83;8.73;;;;;;;;;;4881818;29;20629;-89
2022/12/03 08:30:02;;;;;;;13.67;9.17;;;;;;;;;;4881920;29;20274;-88
2022/12/03 08:32:30;;;;;;;14.50;8.43;;;;;;;;;;4898055;29;20210;-86
2022/12/03 08:34:56;;;;;;;13.60;9.33;;;;;;;;;;4881554;29;20645;-84
2022/12/03 08:37:22;;;;;;;12.60;8.70;;;;;;;;;;4880377;29;20226;-85
2022/12/03 08:39:49;;;;;;;13.23;8.67;;;;;;;;;;4898549;29;20181;-85
2022/12/03 08:45:16;;;;;;;14.27;8.80;;;;;;;;;;4901511;29;21108;-87
2022/12/03 08:47:42;;;;;;;13.63;8.63;;;;;;;;;;4882542;29;20553;-87
2022/12/03 08:50:26;;;;;;;10.87;7.87;;;;;;;;;;4882572;29;20182;-86
2022/12/03 08:52:53;;;;;;;13.27;8.97;;;;;;;;;;4879999;29;20187;-86
2022/12/03 08:55:35;;;;;;;11.47;8.20;;;;;;;;;;4883228;29;20175;-86
2022/12/03 08:58:14;;;;;;;14.47;9.00;;;;;;;;;;4881250;29;20599;-86
2022/12/03 09:00:41;;;;;;;10.90;7.73;;;;;;;;;;4895786;29;20178;-86
2022/12/03 09:03:10;;;;;;;13.20;8.30;;;;;;;;;;4882281;29;20274;-85
2022/12/03 09:05:36;;;;;;;13.27;8.30;;;;;;;;;;4897564;29;20508;-86
2022/12/03 09:08:02;;;;;;;12.63;8.87;;;;;;;;;;4892565;29;20190;-85
2022/12/03 09:10:28;;;;;;;14.33;8.77;;;;;;;;;;4880794;29;20187;-84
2022/12/03 09:12:54;;;;;;;13.57;8.37;;;;;;;;;;4884534;29;20190;-85
2022/12/03 09:15:20;;;;;;;12.47;7.90;;;;;;;;;;4884486;29;20658;-86
2022/12/03 09:17:47;;;;;;;16.27;8.63;;;;;;;;;;4901184;29;20646;-88
2022/12/03 09:20:13;;;;;;;12.23;7.87;;;;;;;;;;4890619;29;20516;-87
2022/12/03 09:22:40;;;;;;;12.33;8.40;;;;;;;;;;4880837;29;20717;-86
2022/12/03 09:25:06;;;;;;;15.00;9.07;;;;;;;;;;4882242;29;20220;-87
2022/12/03 09:27:32;;;;;;;12.27;8.47;;;;;;;;;;4887144;29;20187;-87
2022/12/03 09:29:58;;;;;;;9.73;7.37;;;;;;;;;;4882280;29;20417;-88
2022/12/03 09:32:24;;;;;;;12.40;7.63;;;;;;;;;;4885234;29;20214;-88
2022/12/03 09:34:50;;;;;;;12.17;8.37;;;;;;;;;;4883100;29;20598;-87
2022/12/03 09:37:17;;;;;;;11.03;7.73;;;;;;;;;;4881478;29;20676;-86
2022/12/03 09:39:43;;;;;;;13.47;9.10;;;;;;;;;;4897343;29;20243;-85
2022/12/03 09:42:09;;;;;;;11.43;8.17;;;;;;;;;;4894556;29;20260;-85
2022/12/03 09:44:35;;;;;;;13.40;8.23;;;;;;;;;;4893665;29;20218;-84
2022/12/03 09:47:02;;;;;;;10.10;7.60;;;;;;;;;;4880569;29;20187;-88
2022/12/03 09:49:29;;;;;;;10.90;7.80;;;;;;;;;;4891263;29;20193;-89
2022/12/03 09:51:56;;;;;;;12.33;8.17;;;;;;;;;;4887007;29;20654;-86
2022/12/03 09:54:24;;;;;;;14.07;8.47;;;;;;;;;;4888037;29;20178;-88
2022/12/03 09:56:50;;;;;;;12.47;8.30;;;;;;;;;;4887029;29;20326;-87
2022/12/03 09:59:16;;;;;;;12.43;8.43;;;;;;;;;;4885991;29;20632;-88
2022/12/03 10:01:42;;;;;;;12.60;8.60;;;;;;;;;;4897667;29;20190;-86
2022/12/03 10:04:09;;;;;;;11.60;8.43;;;;;;;;;;4884299;29;20189;-86
2022/12/03 10:06:35;;;;;;;12.43;8.03;;;;;;;;;;4883235;29;20186;-85
2022/12/03 10:09:01;;;;;;;13.67;9.03;;;;;;;;;;4884017;29;20664;-85
2022/12/03 10:11:28;;;;;;;14.27;9.57;;;;;;;;;;4882422;29;20190;-86
2022/12/03 10:13:56;;;;;;;11.27;8.37;;;;;;;;;;4882537;29;20236;-85
2022/12/03 10:16:22;;;;;;;13.50;9.40;;;;;;;;;;4901663;29;20190;-86
2022/12/03 10:18:53;;;;;;;14.70;9.43;;;;;;;;;;4883920;29;20191;-85
2022/12/03 10:21:24;;;;;;;11.93;9.00;;;;;;;;;;4878769;29;20206;-87
2022/12/03 10:23:50;;;;;;;11.53;8.17;;;;;;;;;;4884316;29;20208;-86
2022/12/03 10:26:16;;;;;;;10.43;8.10;;;;;;;;;;4896398;29;20191;-87
2022/12/03 10:28:45;;;;;;;15.60;9.77;;;;;;;;;;4882450;29;20186;-87
2022/12/03 10:31:12;;;;;;;13.63;8.90;;;;;;;;;;4884840;29;20515;-88
2022/12/03 10:33:43;;;;;;;12.00;8.87;;;;;;;;;;4897272;29;20197;-88
2022/12/03 10:36:23;;;;;;;13.60;9.30;;;;;;;;;;4890335;29;20230;-87
2022/12/03 10:39:08;;;;;;;15.37;10.17;;;;;;;;;;4893131;29;20182;-87
2022/12/03 10:41:36;;;;;;;14.07;9.80;;;;;;;;;;4881073;29;20186;-88
2022/12/03 10:44:19;;;;;;;13.40;8.93;;;;;;;;;;4882039;29;20281;-87
2022/12/03 10:46:45;;;;;;;14.63;9.17;;;;;;;;;;4882573;29;20210;-87
2022/12/03 10:49:18;;;;;;;13.47;9.67;;;;;;;;;;4890809;29;20199;-86
2022/12/03 10:51:45;;;;;;;14.60;9.90;;;;;;;;;;4896935;29;20533;-88
2022/12/03 10:54:20;;;;;;;14.23;9.13;;;;;;;;;;4883042;29;20186;-86
2022/12/03 10:56:47;;;;;;;13.80;9.77;;;;;;;;;;4895264;29;20566;-87
2022/12/03 10:59:15;;;;;;;13.63;9.73;;;;;;;;;;4879355;29;20187;-87
2022/12/03 11:01:41;;;;;;;14.63;9.43;;;;;;;;;;4876452;29;20605;-87
2022/12/03 11:04:14;;;;;;;16.30;10.30;;;;;;;;;;4896689;29;20207;-86
2022/12/03 11:06:40;;;;;;;13.13;10.30;;;;;;;;;;4879943;29;20206;-89
2022/12/03 11:09:13;;;;;;;14.00;10.50;;;;;;;;;;4878853;29;20191;-87
2022/12/03 11:11:39;;;;;;;14.90;9.87;;;;;;;;;;4880671;29;20191;-86
2022/12/03 11:14:05;;;;;;;15.40;10.20;;;;;;;;;;4876967;29;20198;-87
2022/12/03 11:16:40;;;;;;;16.10;9.97;;;;;;;;;;4885220;29;20193;-86
2022/12/03 11:19:13;;;;;;;13.57;9.03;;;;;;;;;;4877803;29;20585;-86
2022/12/03 11:21:57;;;;;;;13.73;9.57;;;;;;;;;;4892305;29;20629;-88
2022/12/03 11:24:23;;;;;;;14.63;9.77;;;;;;;;;;4886401;29;20254;-89
2022/12/03 11:26:49;;;;;;;14.67;9.97;;;;;;;;;;4880657;29;20242;-88
2022/12/03 11:29:15;;;;;;;15.13;9.97;;;;;;;;;;4882629;29;20574;-87
2022/12/03 11:31:43;;;;;;;12.87;9.00;;;;;;;;;;4899258;29;20250;-88
2022/12/03 11:34:21;;;;;;;16.37;10.33;;;;;;;;;;4892583;29;20645;-87
2022/12/03 11:37:06;;;;;;;15.53;9.90;;;;;;;;;;4891340;29;20321;-89
2022/12/03 11:39:44;;;;;;;15.33;9.83;;;;;;;;;;4880681;29;20278;-86
2022/12/03 11:42:25;;;;;;;12.57;8.97;;;;;;;;;;4894495;29;20681;-88
2022/12/03 11:45:10;;;;;;;13.20;9.53;;;;;;;;;;4876105;29;20183;-87
2022/12/03 11:47:47;;;;;;;13.83;9.47;;;;;;;;;;4882938;29;20202;-87
2022/12/03 11:50:21;;;;;;;14.50;9.50;;;;;;;;;;4891298;29;20603;-87
2022/12/03 11:52:49;;;;;;;14.40;9.13;;;;;;;;;;4882344;29;20554;-86
2022/12/03 11:55:36;;;;;;;16.80;10.23;;;;;;;;;;4903893;29;20198;-88
2022/12/03 11:58:14;;;;;;;15.37;9.23;;;;;;;;;;4891346;29;20199;-86
2022/12/03 12:00:47;;;;;;;16.33;10.40;;;;;;;;;;4887855;29;20171;-87
2022/12/03 12:03:20;;;;;;;13.57;8.57;;;;;;;;;;4893442;29;20226;-89
2022/12/03 12:05:59;;;;;;;13.73;9.87;;;;;;;;;;4882796;29;20555;-89
2022/12/03 12:08:25;;;;;;;18.23;11.57;;;;;;;;;;4906715;29;20235;-89
2022/12/03 12:10:57;;;;;;;16.57;10.47;;;;;;;;;;4891314;29;20191;-89
2022/12/03 12:13:32;;;;;;;17.10;10.40;;;;;;;;;;4877674;29;20202;-86
2022/12/03 12:16:03;;;;;;;14.10;10.40;;;;;;;;;;4883355;29;20276;-87
2022/12/03 12:18:32;;;;;;;15.63;10.10;;;;;;;;;;4881428;29;20201;-88
2022/12/03 12:21:17;;;;;;;11.33;9.10;;;;;;;;;;4890675;29;20187;-87
2022/12/03 12:23:43;;;;;;;14.13;10.13;;;;;;;;;;4888976;29;20247;-86
2022/12/03 12:26:09;;;;;;;17.37;10.53;;;;;;;;;;4887850;29;20206;-87
2022/12/03 12:28:35;;;;;;;17.40;10.27;;;;;;;;;;4895105;29;20247;-87
2022/12/03 12:31:02;;;;;;;15.63;9.83;;;;;;;;;;4873581;29;20202;-86
2022/12/03 12:33:28;;;;;;;16.33;11.70;;;;;;;;;;4894878;29;20198;-89
2022/12/03 12:35:54;;;;;;;15.77;10.50;;;;;;;;;;4878559;29;20208;-86
2022/12/03 12:38:20;;;;;;;16.50;10.33;;;;;;;;;;4890411;29;20187;-88
2022/12/03 12:40:48;;;;;;;15.23;9.87;;;;;;;;;;4880189;29;20598;-87
2022/12/03 12:43:19;;;;;;;16.80;10.47;;;;;;;;;;4878656;29;20206;-86
2022/12/03 12:45:45;;;;;;;16.13;10.40;;;;;;;;;;4885805;29;20610;-86
2022/12/03 12:48:14;;;;;;;13.57;9.63;;;;;;;;;;4890335;29;20258;-87
2022/12/03 12:50:42;;;;;;;12.60;9.23;;;;;;;;;;4878277;29;20178;-90
2022/12/03 12:53:16;;;;;;;14.87;10.67;;;;;;;;;;4876895;29;20183;-85
2022/12/03 12:55:42;;;;;;;14.43;10.07;;;;;;;;;;4887405;29;20187;-87
2022/12/03 12:58:14;;;;;;;14.10;10.43;;;;;;;;;;4891892;29;20257;-89
2022/12/03 13:00:40;;;;;;;12.00;9.03;;;;;;;;;;4876419;29;20922;-89
2022/12/03 13:03:07;;;;;;;16.50;10.93;;;;;;;;;;4876730;29;20292;-88
2022/12/03 13:05:38;;;;;;;18.90;10.33;;;;;;;;;;4874217;29;20497;-87
2022/12/03 13:08:12;;;;;;;16.60;11.00;;;;;;;;;;4866484;29;20182;-88
2022/12/03 13:10:40;;;;;;;15.43;10.77;;;;;;;;;;4873325;29;20709;-92
2022/12/03 13:13:15;;;;;;;16.50;10.10;;;;;;;;;;4869534;29;20193;-89
2022/12/03 13:15:44;;;;;;;14.93;10.37;;;;;;;;;;4871961;29;20193;-86
2022/12/03 13:18:27;;;;;;;18.13;11.63;;;;;;;;;;4890260;29;20190;-88
2022/12/03 13:20:54;;;;;;;17.03;11.57;;;;;;;;;;4890398;29;20190;-88
2022/12/03 13:23:28;;;;;;;18.53;11.47;;;;;;;;;;4896116;29;20396;-88
2022/12/03 13:25:56;;;;;;;18.30;11.97;;;;;;;;;;4894641;29;20182;-90
2022/12/03 13:28:22;;;;;;;15.80;10.90;;;;;;;;;;4885265;29;20191;-88
2022/12/03 13:30:48;;;;;;;15.73;11.00;;;;;;;;;;4892737;29;20475;-92
2022/12/03 13:33:22;;;;;;;16.87;11.50;;;;;;;;;;4875444;29;20258;-88
2022/12/03 13:35:51;;;;;;;19.17;12.27;;;;;;;;;;4890149;29;20182;-88
2022/12/03 13:38:18;;;;;;;17.83;11.67;;;;;;;;;;4875222;29;20258;-88
2022/12/03 13:40:45;;;;;;;17.87;11.43;;;;;;;;;;4891581;29;20178;-87
2022/12/03 13:43:15;;;;;;;17.17;11.87;;;;;;;;;;4871939;29;20194;-89
2022/12/03 13:45:43;;;;;;;14.83;10.83;;;;;;;;;;4886916;29;20183;-87
2022/12/03 13:48:34;;;;;;;15.33;10.27;;;;;;;;;;4876507;29;20187;-88
2022/12/03 13:51:02;;;;;;;15.73;10.57;;;;;;;;;;4884626;29;20270;-90
2022/12/03 13:53:28;;;;;;;16.97;10.87;;;;;;;;;;4888772;29;20182;-88
2022/12/03 13:56:02;;;;;;;16.90;11.73;;;;;;;;;;4894336;29;20199;-87
2022/12/03 13:58:28;;;;;;;16.67;11.93;;;;;;;;;;4871612;29;20195;-86
2022/12/03 14:00:55;;;;;;;20.50;12.70;;;;;;;;;;4884350;29;20553;-87
2022/12/03 14:03:22;;;;;;;18.23;11.43;;;;;;;;;;4877592;29;20207;-86
2022/12/03 14:05:48;;;;;;;18.50;11.13;;;;;;;;;;4879360;29;20712;-88
2022/12/03 14:08:14;;;;;;;17.80;10.73;;;;;;;;;;4895233;29;20273;-85
2022/12/03 14:10:40;;;;;;;17.97;11.67;;;;;;;;;;4891811;29;20732;-87
2022/12/03 14:13:06;;;;;;;16.80;11.80;;;;;;;;;;4892815;29;20194;-88
2022/12/03 14:15:32;;;;;;;16.37;10.73;;;;;;;;;;4875084;29;20195;-87
2022/12/03 14:17:58;;;;;;;14.63;10.77;;;;;;;;;;4893354;29;20709;-87
2022/12/03 14:20:24;;;;;;;18.17;11.00;;;;;;;;;;4884148;29;20208;-87
2022/12/03 14:22:50;;;;;;;14.97;10.93;;;;;;;;;;4873997;29;20241;-88
2022/12/03 14:25:16;;;;;;;18.53;12.17;;;;;;;;;;4883530;29;20593;-87
2022/12/03 14:27:42;;;;;;;19.17;11.17;;;;;;;;;;4879485;29;20689;-87
2022/12/03 14:30:09;;;;;;;17.27;11.07;;;;;;;;;;4876438;29;20218;-87
2022/12/03 14:32:35;;;;;;;17.47;12.07;;;;;;;;;;4882026;29;20282;-87
2022/12/03 14:35:01;;;;;;;17.33;11.87;;;;;;;;;;4894569;29;20638;-87
2022/12/03 14:37:27;;;;;;;16.13;10.93;;;;;;;;;;4879639;29;20664;-86
2022/12/03 14:39:53;;;;;;;16.27;10.37;;;;;;;;;;4876270;29;20215;-87
2022/12/03 14:42:19;;;;;;;16.13;11.20;;;;;;;;;;4890556;29;20241;-88
2022/12/03 14:44:46;;;;;;;14.40;10.60;;;;;;;;;;4876258;29;20187;-86
2022/12/03 14:47:13;;;;;;;17.57;10.90;;;;;;;;;;4889658;29;20567;-88
2022/12/03 14:49:39;;;;;;;16.60;11.63;;;;;;;;;;4890647;29;20191;-88
2022/12/03 14:52:05;;;;;;;15.40;10.50;;;;;;;;;;4892999;29;20669;-86
2022/12/03 14:54:32;;;;;;;17.53;11.90;;;;;;;;;;4882122;29;20201;-87
2022/12/03 14:56:58;;;;;;;16.13;10.63;;;;;;;;;;4876909;29;20192;-87
2022/12/03 14:59:24;;;;;;;17.90;11.77;;;;;;;;;;4879693;29;20681;-88